Panda — PBCS — position and weather

sailwx.info

Track history (hours):
 
Tides and Currents Weather Stations Pressure Air Temp Water Temp Dewpoint Dewpoint Depression Visibility Wind Speed Wind Dir Waves Ship Positions

Panda

Last reported at 2015-Aug-31 17:33 UTC. Time now 2015-Sep-01 14:08 UTC.
Position N 53°42' W 000°25'.

Length 89 m; draft 4.4 m.

Type: Cargo ship. MMSI: 245014000.

Date/timePositionNaut miles runAvg speedWind from/ knotsBaromVisibWave heightAir tempDewpointWater temp
2015-Aug-31 17:33N 53°42' W 000°25'10 9.8
2015-Aug-31 16:33N 53°38' W 000°10'1312.6
2015-Aug-31 15:33N 53°33' E 000°10'7 7.2
2015-Aug-31 14:33N 53°33' E 000°22'3 1.2
2015-Aug-31 12:22N 53°36' E 000°24'0 0.0
2015-Aug-31 11:31N 53°36' E 000°25'0 0.0
2015-Aug-31 10:22N 53°36' E 000°25'0 0.0
2015-Aug-31 09:22N 53°36' E 000°25'2 2.9
2015-Aug-31 08:33N 53°33' E 000°25'28 8.4
2015-Aug-31 05:13N 53°10' E 000°52'5 8.3
2015-Aug-31 04:33N 53°06' E 000°58'12 9.7
2015-Aug-31 03:18N 52°59' E 001°15'811.1
2015-Aug-31 02:33N 52°55' E 001°27'1211.7
2015-Aug-31 01:33N 52°47' E 001°41'1111.5
2015-Aug-31 00:33N 52°38' E 001°52'9 8.9
2015-Aug-30 23:33N 52°29' E 001°52'7 7.3
2015-Aug-30 22:32N 52°22' E 001°51'39 7.4
2015-Aug-30 17:16N 51°43' E 001°48'710.3
2015-Aug-30 16:33N 51°36' E 001°48'1110.8
2015-Aug-30 15:33N 51°25' E 001°44'1111.1
2015-Aug-30 14:33N 51°15' E 001°38'1110.6
2015-Aug-30 13:33N 51°04' E 001°37'320 8.6
2015-Aug-29 00:31N 48°05' W 005°12'2510.4
2015-Aug-28 22:04N 47°42' W 004°56'6 9.3
2015-Aug-28 21:23N 47°36' W 004°52'8 9.1
2015-Aug-28 20:33N 47°29' W 004°47'9 9.1
2015-Aug-28 19:33N 47°21' W 004°41'11 9.2
2015-Aug-28 18:22N 47°11' W 004°34'  
2015-Aug-25 13:21N 43°22' W 001°59'  
Track history (hours):
 
Tides and Currents Weather Stations Pressure Air Temp Water Temp Dewpoint Dewpoint Depression Visibility Wind Speed Wind Dir Waves Ship Positions

Panda

Last reported at 2015-Aug-31 17:33 UTC. Time now 2015-Sep-01 14:08 UTC.
Position N 53°42' W 000°25'.

Length 89 m; draft 4.4 m.

Type: Cargo ship. MMSI: 245014000.

Date/timePositionNaut miles runAvg speedWind from/ knotsBaromVisibWave heightAir tempDewpointWater temp
2015-Aug-31 17:33N 53°42' W 000°25'10 9.8
2015-Aug-31 16:33N 53°38' W 000°10'1312.6
2015-Aug-31 15:33N 53°33' E 000°10'7 7.2
2015-Aug-31 14:33N 53°33' E 000°22'3 1.2
2015-Aug-31 12:22N 53°36' E 000°24'0 0.0
2015-Aug-31 11:31N 53°36' E 000°25'0 0.0
2015-Aug-31 10:22N 53°36' E 000°25'0 0.0
2015-Aug-31 09:22N 53°36' E 000°25'2 2.9
2015-Aug-31 08:33N 53°33' E 000°25'28 8.4
2015-Aug-31 05:13N 53°10' E 000°52'5 8.3
2015-Aug-31 04:33N 53°06' E 000°58'12 9.7
2015-Aug-31 03:18N 52°59' E 001°15'811.1
2015-Aug-31 02:33N 52°55' E 001°27'1211.7
2015-Aug-31 01:33N 52°47' E 001°41'1111.5
2015-Aug-31 00:33N 52°38' E 001°52'9 8.9
2015-Aug-30 23:33N 52°29' E 001°52'7 7.3
2015-Aug-30 22:32N 52°22' E 001°51'39 7.4
2015-Aug-30 17:16N 51°43' E 001°48'710.3
2015-Aug-30 16:33N 51°36' E 001°48'1110.8
2015-Aug-30 15:33N 51°25' E 001°44'1111.1
2015-Aug-30 14:33N 51°15' E 001°38'1110.6
2015-Aug-30 13:33N 51°04' E 001°37'320 8.6
2015-Aug-29 00:31N 48°05' W 005°12'2510.4
2015-Aug-28 22:04N 47°42' W 004°56'6 9.3
2015-Aug-28 21:23N 47°36' W 004°52'8 9.1
2015-Aug-28 20:33N 47°29' W 004°47'9 9.1
2015-Aug-28 19:33N 47°21' W 004°41'11 9.2
2015-Aug-28 18:22N 47°11' W 004°34'  
2015-Aug-25 13:21N 43°22' W 001°59'  

Dump ship's entire track history